sensor_id;sensor_type;location;lat;lon;timestamp;P1;durP1;ratioP1;P2;durP2;ratioP2
48199;SDS011;33990;44.602;10.976;2023-02-01T00:00:39;9.75;;;7.93;;
48199;SDS011;33990;44.602;10.976;2023-02-01T00:03:06;9.35;;;8.02;;
48199;SDS011;33990;44.602;10.976;2023-02-01T00:05:35;8.93;;;7.32;;
48199;SDS011;33990;44.602;10.976;2023-02-01T00:08:02;9.60;;;8.05;;
48199;SDS011;33990;44.602;10.976;2023-02-01T00:10:30;10.93;;;7.90;;
48199;SDS011;33990;44.602;10.976;2023-02-01T00:12:57;8.32;;;7.25;;
48199;SDS011;33990;44.602;10.976;2023-02-01T00:15:24;9.05;;;7.57;;
48199;SDS011;33990;44.602;10.976;2023-02-01T00:17:54;9.07;;;7.22;;
48199;SDS011;33990;44.602;10.976;2023-02-01T00:20:22;8.95;;;7.18;;
48199;SDS011;33990;44.602;10.976;2023-02-01T00:22:49;8.15;;;7.30;;
48199;SDS011;33990;44.602;10.976;2023-02-01T00:25:17;8.43;;;7.03;;
48199;SDS011;33990;44.602;10.976;2023-02-01T00:27:48;9.32;;;7.47;;
48199;SDS011;33990;44.602;10.976;2023-02-01T00:30:17;8.15;;;6.45;;
48199;SDS011;33990;44.602;10.976;2023-02-01T00:32:45;8.60;;;7.43;;
48199;SDS011;33990;44.602;10.976;2023-02-01T00:35:13;10.43;;;7.20;;
48199;SDS011;33990;44.602;10.976;2023-02-01T00:37:40;10.10;;;7.43;;
48199;SDS011;33990;44.602;10.976;2023-02-01T00:40:07;8.88;;;6.60;;
48199;SDS011;33990;44.602;10.976;2023-02-01T00:42:35;8.25;;;7.25;;
48199;SDS011;33990;44.602;10.976;2023-02-01T00:45:03;7.40;;;6.53;;
48199;SDS011;33990;44.602;10.976;2023-02-01T00:47:31;15.57;;;7.25;;
48199;SDS011;33990;44.602;10.976;2023-02-01T00:49:59;9.30;;;6.85;;
48199;SDS011;33990;44.602;10.976;2023-02-01T00:52:27;9.60;;;7.70;;
48199;SDS011;33990;44.602;10.976;2023-02-01T00:54:54;8.25;;;6.32;;
48199;SDS011;33990;44.602;10.976;2023-02-01T00:57:21;8.07;;;7.03;;
48199;SDS011;33990;44.602;10.976;2023-02-01T00:59:48;7.38;;;6.60;;
48199;SDS011;33990;44.602;10.976;2023-02-01T01:02:16;9.07;;;7.05;;
48199;SDS011;33990;44.602;10.976;2023-02-01T01:04:43;8.80;;;6.32;;
48199;SDS011;33990;44.602;10.976;2023-02-01T01:07:10;9.85;;;6.63;;
48199;SDS011;33990;44.602;10.976;2023-02-01T01:09:37;8.98;;;6.30;;
48199;SDS011;33990;44.602;10.976;2023-02-01T01:12:05;8.55;;;6.82;;
48199;SDS011;33990;44.602;10.976;2023-02-01T01:14:32;8.27;;;6.75;;
48199;SDS011;33990;44.602;10.976;2023-02-01T01:17:00;8.10;;;6.22;;
48199;SDS011;33990;44.602;10.976;2023-02-01T01:19:27;7.10;;;5.72;;
48199;SDS011;33990;44.602;10.976;2023-02-01T01:21:54;8.93;;;6.63;;
48199;SDS011;33990;44.602;10.976;2023-02-01T01:24:21;7.40;;;6.35;;
48199;SDS011;33990;44.602;10.976;2023-02-01T01:26:49;8.00;;;6.65;;
48199;SDS011;33990;44.602;10.976;2023-02-01T01:29:16;7.22;;;5.85;;
48199;SDS011;33990;44.602;10.976;2023-02-01T01:31:43;7.50;;;5.72;;
48199;SDS011;33990;44.602;10.976;2023-02-01T01:34:11;8.60;;;6.07;;
48199;SDS011;33990;44.602;10.976;2023-02-01T01:36:38;9.07;;;6.18;;
48199;SDS011;33990;44.602;10.976;2023-02-01T01:39:05;7.75;;;6.68;;
48199;SDS011;33990;44.602;10.976;2023-02-01T01:41:33;8.07;;;6.03;;
48199;SDS011;33990;44.602;10.976;2023-02-01T01:47:31;7.70;;;6.10;;
48199;SDS011;33990;44.602;10.976;2023-02-01T01:50:05;8.32;;;5.75;;
48199;SDS011;33990;44.602;10.976;2023-02-01T01:52:34;8.98;;;6.20;;
48199;SDS011;33990;44.602;10.976;2023-02-01T01:55:04;6.82;;;5.22;;
48199;SDS011;33990;44.602;10.976;2023-02-01T01:57:36;7.32;;;5.75;;
48199;SDS011;33990;44.602;10.976;2023-02-01T02:00:10;7.03;;;5.68;;
48199;SDS011;33990;44.602;10.976;2023-02-01T02:02:43;6.68;;;5.45;;
48199;SDS011;33990;44.602;10.976;2023-02-01T02:05:14;7.53;;;6.32;;
48199;SDS011;33990;44.602;10.976;2023-02-01T02:07:48;9.18;;;5.80;;
48199;SDS011;33990;44.602;10.976;2023-02-01T02:10:18;8.00;;;6.18;;
48199;SDS011;33990;44.602;10.976;2023-02-01T02:12:47;8.20;;;5.88;;
48199;SDS011;33990;44.602;10.976;2023-02-01T02:15:15;8.45;;;6.43;;
48199;SDS011;33990;44.602;10.976;2023-02-01T02:17:58;7.93;;;6.28;;
48199;SDS011;33990;44.602;10.976;2023-02-01T02:45:36;8.05;;;5.43;;
48199;SDS011;33990;44.602;10.976;2023-02-01T02:48:29;8.95;;;5.75;;
48199;SDS011;33990;44.602;10.976;2023-02-01T02:51:14;6.95;;;5.63;;
48199;SDS011;33990;44.602;10.976;2023-02-01T02:54:10;6.95;;;5.60;;
48199;SDS011;33990;44.602;10.976;2023-02-01T02:56:59;8.30;;;5.03;;
48199;SDS011;33990;44.602;10.976;2023-02-01T02:59:48;6.85;;;5.22;;
48199;SDS011;33990;44.602;10.976;2023-02-01T03:02:34;5.97;;;5.38;;
48199;SDS011;33990;44.602;10.976;2023-02-01T03:05:20;6.57;;;5.22;;
48199;SDS011;33990;44.602;10.976;2023-02-01T03:10:36;7.18;;;4.72;;
48199;SDS011;33990;44.602;10.976;2023-02-01T03:16:08;6.40;;;4.68;;
48199;SDS011;33990;44.602;10.976;2023-02-01T03:18:50;6.35;;;5.20;;
48199;SDS011;33990;44.602;10.976;2023-02-01T03:21:35;6.38;;;4.78;;
48199;SDS011;33990;44.602;10.976;2023-02-01T03:24:07;8.80;;;5.57;;
48199;SDS011;33990;44.602;10.976;2023-02-01T03:26:41;6.70;;;4.22;;
48199;SDS011;33990;44.602;10.976;2023-02-01T03:29:16;5.38;;;4.63;;
48199;SDS011;33990;44.602;10.976;2023-02-01T03:31:48;5.85;;;4.55;;
48199;SDS011;33990;44.602;10.976;2023-02-01T03:34:16;6.85;;;4.72;;
48199;SDS011;33990;44.602;10.976;2023-02-01T03:36:58;5.35;;;4.70;;
48199;SDS011;33990;44.602;10.976;2023-02-01T03:39:31;5.57;;;4.57;;
48199;SDS011;33990;44.602;10.976;2023-02-01T03:42:04;9.23;;;5.07;;
48199;SDS011;33990;44.602;10.976;2023-02-01T03:44:48;6.25;;;4.07;;
48199;SDS011;33990;44.602;10.976;2023-02-01T03:49:55;5.68;;;4.72;;
48199;SDS011;33990;44.602;10.976;2023-02-01T03:52:41;5.80;;;4.47;;
48199;SDS011;33990;44.602;10.976;2023-02-01T03:55:14;6.95;;;5.43;;
48199;SDS011;33990;44.602;10.976;2023-02-01T03:57:45;4.93;;;3.97;;
48199;SDS011;33990;44.602;10.976;2023-02-01T04:00:37;5.30;;;4.27;;
48199;SDS011;33990;44.602;10.976;2023-02-01T04:03:05;5.35;;;3.88;;
48199;SDS011;33990;44.602;10.976;2023-02-01T04:05:33;5.10;;;4.20;;
48199;SDS011;33990;44.602;10.976;2023-02-01T04:08:04;5.65;;;4.70;;
48199;SDS011;33990;44.602;10.976;2023-02-01T04:10:33;5.30;;;4.05;;
48199;SDS011;33990;44.602;10.976;2023-02-01T04:13:00;5.25;;;3.92;;
48199;SDS011;33990;44.602;10.976;2023-02-01T04:15:27;6.07;;;4.30;;
48199;SDS011;33990;44.602;10.976;2023-02-01T04:17:55;6.13;;;4.00;;
48199;SDS011;33990;44.602;10.976;2023-02-01T04:20:22;7.32;;;3.88;;
48199;SDS011;33990;44.602;10.976;2023-02-01T04:22:50;5.18;;;4.03;;
48199;SDS011;33990;44.602;10.976;2023-02-01T04:25:18;5.70;;;4.18;;
48199;SDS011;33990;44.602;10.976;2023-02-01T04:27:46;7.25;;;3.95;;
48199;SDS011;33990;44.602;10.976;2023-02-01T04:30:13;5.60;;;4.00;;
48199;SDS011;33990;44.602;10.976;2023-02-01T04:32:41;5.32;;;3.85;;
48199;SDS011;33990;44.602;10.976;2023-02-01T04:35:08;5.63;;;4.05;;
48199;SDS011;33990;44.602;10.976;2023-02-01T04:37:36;6.03;;;4.47;;
48199;SDS011;33990;44.602;10.976;2023-02-01T04:40:03;5.55;;;3.97;;
48199;SDS011;33990;44.602;10.976;2023-02-01T04:42:31;5.20;;;4.18;;
48199;SDS011;33990;44.602;10.976;2023-02-01T04:44:58;5.60;;;3.80;;
48199;SDS011;33990;44.602;10.976;2023-02-01T04:47:25;5.63;;;4.00;;
48199;SDS011;33990;44.602;10.976;2023-02-01T04:49:53;5.38;;;4.05;;
48199;SDS011;33990;44.602;10.976;2023-02-01T04:52:20;5.25;;;3.72;;
48199;SDS011;33990;44.602;10.976;2023-02-01T04:54:47;5.82;;;3.80;;
48199;SDS011;33990;44.602;10.976;2023-02-01T04:57:15;5.30;;;4.20;;
48199;SDS011;33990;44.602;10.976;2023-02-01T04:59:42;6.05;;;3.78;;
48199;SDS011;33990;44.602;10.976;2023-02-01T05:02:09;4.50;;;3.85;;
48199;SDS011;33990;44.602;10.976;2023-02-01T05:04:36;7.40;;;4.13;;
48199;SDS011;33990;44.602;10.976;2023-02-01T05:07:04;5.43;;;3.95;;
48199;SDS011;33990;44.602;10.976;2023-02-01T05:09:31;5.38;;;4.38;;
48199;SDS011;33990;44.602;10.976;2023-02-01T05:11:58;5.78;;;3.70;;
48199;SDS011;33990;44.602;10.976;2023-02-01T05:14:44;5.63;;;3.85;;
48199;SDS011;33990;44.602;10.976;2023-02-01T05:17:12;4.40;;;3.58;;
48199;SDS011;33990;44.602;10.976;2023-02-01T05:19:39;5.95;;;4.10;;
48199;SDS011;33990;44.602;10.976;2023-02-01T05:22:06;6.03;;;4.15;;
48199;SDS011;33990;44.602;10.976;2023-02-01T05:24:33;5.30;;;3.92;;
48199;SDS011;33990;44.602;10.976;2023-02-01T05:27:01;4.43;;;3.30;;
48199;SDS011;33990;44.602;10.976;2023-02-01T05:29:28;4.78;;;3.72;;
48199;SDS011;33990;44.602;10.976;2023-02-01T05:31:55;6.45;;;4.03;;
48199;SDS011;33990;44.602;10.976;2023-02-01T05:34:31;6.00;;;3.92;;
48199;SDS011;33990;44.602;10.976;2023-02-01T05:36:58;7.10;;;4.20;;
48199;SDS011;33990;44.602;10.976;2023-02-01T05:39:26;5.43;;;3.63;;
48199;SDS011;33990;44.602;10.976;2023-02-01T05:41:53;4.75;;;3.30;;
48199;SDS011;33990;44.602;10.976;2023-02-01T05:44:20;7.35;;;3.85;;
48199;SDS011;33990;44.602;10.976;2023-02-01T05:46:48;4.07;;;3.17;;
48199;SDS011;33990;44.602;10.976;2023-02-01T05:49:16;5.80;;;3.42;;
48199;SDS011;33990;44.602;10.976;2023-02-01T05:51:43;5.75;;;3.67;;
48199;SDS011;33990;44.602;10.976;2023-02-01T05:54:10;5.30;;;3.83;;
48199;SDS011;33990;44.602;10.976;2023-02-01T05:56:38;5.28;;;3.72;;
48199;SDS011;33990;44.602;10.976;2023-02-01T05:59:05;5.65;;;4.00;;
48199;SDS011;33990;44.602;10.976;2023-02-01T06:01:32;5.97;;;4.22;;
48199;SDS011;33990;44.602;10.976;2023-02-01T06:04:00;6.32;;;3.97;;
48199;SDS011;33990;44.602;10.976;2023-02-01T06:06:27;6.05;;;4.03;;
48199;SDS011;33990;44.602;10.976;2023-02-01T06:08:54;6.28;;;3.78;;
48199;SDS011;33990;44.602;10.976;2023-02-01T06:11:22;5.88;;;4.05;;
48199;SDS011;33990;44.602;10.976;2023-02-01T06:13:58;5.22;;;3.30;;
48199;SDS011;33990;44.602;10.976;2023-02-01T06:16:26;4.60;;;3.33;;
48199;SDS011;33990;44.602;10.976;2023-02-01T06:18:56;6.10;;;4.10;;
48199;SDS011;33990;44.602;10.976;2023-02-01T06:21:23;5.20;;;3.50;;
48199;SDS011;33990;44.602;10.976;2023-02-01T06:23:51;4.60;;;3.50;;
48199;SDS011;33990;44.602;10.976;2023-02-01T06:26:19;6.68;;;3.95;;
48199;SDS011;33990;44.602;10.976;2023-02-01T06:28:47;6.30;;;4.32;;
48199;SDS011;33990;44.602;10.976;2023-02-01T06:31:14;6.32;;;3.88;;
48199;SDS011;33990;44.602;10.976;2023-02-01T06:33:42;8.00;;;4.13;;
48199;SDS011;33990;44.602;10.976;2023-02-01T06:36:09;5.60;;;3.35;;
48199;SDS011;33990;44.602;10.976;2023-02-01T06:38:39;8.75;;;4.13;;
48199;SDS011;33990;44.602;10.976;2023-02-01T06:41:06;6.45;;;4.22;;
48199;SDS011;33990;44.602;10.976;2023-02-01T06:43:34;6.00;;;4.03;;
48199;SDS011;33990;44.602;10.976;2023-02-01T06:46:02;5.07;;;3.60;;
48199;SDS011;33990;44.602;10.976;2023-02-01T06:48:31;6.97;;;4.38;;
48199;SDS011;33990;44.602;10.976;2023-02-01T06:50:59;5.78;;;3.95;;
48199;SDS011;33990;44.602;10.976;2023-02-01T06:53:27;5.50;;;3.90;;
48199;SDS011;33990;44.602;10.976;2023-02-01T06:55:55;7.00;;;4.07;;
48199;SDS011;33990;44.602;10.976;2023-02-01T06:58:27;8.60;;;4.20;;
48199;SDS011;33990;44.602;10.976;2023-02-01T07:01:05;6.22;;;4.05;;
48199;SDS011;33990;44.602;10.976;2023-02-01T07:03:34;9.45;;;4.97;;
48199;SDS011;33990;44.602;10.976;2023-02-01T07:06:02;8.18;;;4.75;;
48199;SDS011;33990;44.602;10.976;2023-02-01T07:08:32;6.20;;;4.28;;
48199;SDS011;33990;44.602;10.976;2023-02-01T07:11:02;6.47;;;3.97;;
48199;SDS011;33990;44.602;10.976;2023-02-01T07:13:31;7.43;;;4.07;;
48199;SDS011;33990;44.602;10.976;2023-02-01T07:15:59;6.68;;;4.40;;
48199;SDS011;33990;44.602;10.976;2023-02-01T07:18:31;8.32;;;4.35;;
48199;SDS011;33990;44.602;10.976;2023-02-01T07:20:59;5.35;;;4.10;;
48199;SDS011;33990;44.602;10.976;2023-02-01T07:23:27;7.20;;;4.25;;
48199;SDS011;33990;44.602;10.976;2023-02-01T07:25:55;4.88;;;3.97;;
48199;SDS011;33990;44.602;10.976;2023-02-01T07:28:24;6.68;;;4.30;;
48199;SDS011;33990;44.602;10.976;2023-02-01T07:30:51;6.63;;;3.55;;
48199;SDS011;33990;44.602;10.976;2023-02-01T07:33:20;4.95;;;3.67;;
48199;SDS011;33990;44.602;10.976;2023-02-01T07:35:49;6.53;;;4.60;;
48199;SDS011;33990;44.602;10.976;2023-02-01T07:38:17;6.00;;;4.18;;
48199;SDS011;33990;44.602;10.976;2023-02-01T07:40:44;8.85;;;4.10;;
48199;SDS011;33990;44.602;10.976;2023-02-01T07:43:12;6.50;;;4.22;;
48199;SDS011;33990;44.602;10.976;2023-02-01T07:45:39;7.10;;;4.60;;
48199;SDS011;33990;44.602;10.976;2023-02-01T07:48:06;7.53;;;4.53;;
48199;SDS011;33990;44.602;10.976;2023-02-01T07:50:36;8.60;;;4.30;;
48199;SDS011;33990;44.602;10.976;2023-02-01T07:53:04;6.97;;;4.03;;
48199;SDS011;33990;44.602;10.976;2023-02-01T07:55:31;5.30;;;3.80;;
48199;SDS011;33990;44.602;10.976;2023-02-01T07:57:58;7.68;;;4.50;;
48199;SDS011;33990;44.602;10.976;2023-02-01T08:00:26;6.63;;;4.18;;
48199;SDS011;33990;44.602;10.976;2023-02-01T08:03:16;6.07;;;4.28;;
48199;SDS011;33990;44.602;10.976;2023-02-01T08:05:43;7.53;;;5.32;;
48199;SDS011;33990;44.602;10.976;2023-02-01T08:08:11;18.48;;;6.68;;
48199;SDS011;33990;44.602;10.976;2023-02-01T08:10:38;13.27;;;9.30;;
48199;SDS011;33990;44.602;10.976;2023-02-01T08:13:06;14.50;;;10.35;;
48199;SDS011;33990;44.602;10.976;2023-02-01T08:15:33;20.92;;;11.70;;
48199;SDS011;33990;44.602;10.976;2023-02-01T08:18:01;14.82;;;10.60;;
48199;SDS011;33990;44.602;10.976;2023-02-01T08:20:29;18.92;;;12.15;;
48199;SDS011;33990;44.602;10.976;2023-02-01T08:22:56;14.90;;;11.10;;
48199;SDS011;33990;44.602;10.976;2023-02-01T08:25:24;17.80;;;12.05;;
48199;SDS011;33990;44.602;10.976;2023-02-01T08:27:51;20.45;;;12.45;;
48199;SDS011;33990;44.602;10.976;2023-02-01T08:30:18;18.00;;;11.63;;
48199;SDS011;33990;44.602;10.976;2023-02-01T08:32:46;17.33;;;12.60;;
48199;SDS011;33990;44.602;10.976;2023-02-01T08:35:14;17.98;;;12.63;;
48199;SDS011;33990;44.602;10.976;2023-02-01T08:37:42;13.30;;;11.35;;
48199;SDS011;33990;44.602;10.976;2023-02-01T08:40:09;17.88;;;12.52;;
48199;SDS011;33990;44.602;10.976;2023-02-01T08:42:37;16.70;;;11.80;;
48199;SDS011;33990;44.602;10.976;2023-02-01T08:45:21;17.67;;;12.80;;
48199;SDS011;33990;44.602;10.976;2023-02-01T08:50:20;15.35;;;11.52;;
48199;SDS011;33990;44.602;10.976;2023-02-01T08:52:48;14.75;;;12.30;;
48199;SDS011;33990;44.602;10.976;2023-02-01T08:55:16;15.57;;;11.18;;
48199;SDS011;33990;44.602;10.976;2023-02-01T08:57:43;16.23;;;11.55;;
48199;SDS011;33990;44.602;10.976;2023-02-01T09:00:12;14.73;;;11.95;;
48199;SDS011;33990;44.602;10.976;2023-02-01T09:02:42;18.70;;;13.40;;
48199;SDS011;33990;44.602;10.976;2023-02-01T09:05:10;18.45;;;12.15;;
48199;SDS011;33990;44.602;10.976;2023-02-01T09:07:38;16.30;;;13.00;;
48199;SDS011;33990;44.602;10.976;2023-02-01T09:10:06;19.63;;;13.38;;
48199;SDS011;33990;44.602;10.976;2023-02-01T09:12:34;17.20;;;11.77;;
48199;SDS011;33990;44.602;10.976;2023-02-01T09:15:01;16.65;;;11.15;;
48199;SDS011;33990;44.602;10.976;2023-02-01T09:17:30;16.30;;;9.68;;
48199;SDS011;33990;44.602;10.976;2023-02-01T09:19:57;15.43;;;9.52;;
48199;SDS011;33990;44.602;10.976;2023-02-01T09:22:24;11.65;;;8.73;;
48199;SDS011;33990;44.602;10.976;2023-02-01T09:24:52;12.98;;;8.27;;
48199;SDS011;33990;44.602;10.976;2023-02-01T09:27:21;13.90;;;8.65;;
48199;SDS011;33990;44.602;10.976;2023-02-01T09:29:49;11.15;;;8.27;;
48199;SDS011;33990;44.602;10.976;2023-02-01T09:32:20;12.90;;;7.97;;
48199;SDS011;33990;44.602;10.976;2023-02-01T09:34:51;10.88;;;7.90;;
48199;SDS011;33990;44.602;10.976;2023-02-01T09:37:19;10.20;;;7.78;;
48199;SDS011;33990;44.602;10.976;2023-02-01T09:39:46;11.13;;;7.55;;
48199;SDS011;33990;44.602;10.976;2023-02-01T09:47:51;13.25;;;9.00;;
48199;SDS011;33990;44.602;10.976;2023-02-01T09:50:35;13.57;;;8.32;;
48199;SDS011;33990;44.602;10.976;2023-02-01T09:55:45;10.95;;;8.40;;
48199;SDS011;33990;44.602;10.976;2023-02-01T09:58:20;9.70;;;7.70;;
48199;SDS011;33990;44.602;10.976;2023-02-01T10:00:52;11.80;;;7.93;;
48199;SDS011;33990;44.602;10.976;2023-02-01T10:03:44;12.68;;;7.55;;
48199;SDS011;33990;44.602;10.976;2023-02-01T10:06:28;11.48;;;7.35;;
48199;SDS011;33990;44.602;10.976;2023-02-01T10:11:39;11.63;;;7.40;;
48199;SDS011;33990;44.602;10.976;2023-02-01T10:22:28;9.32;;;6.82;;
48199;SDS011;33990;44.602;10.976;2023-02-01T10:25:23;9.70;;;6.78;;
48199;SDS011;33990;44.602;10.976;2023-02-01T10:27:55;9.02;;;6.97;;
48199;SDS011;33990;44.602;10.976;2023-02-01T10:30:24;9.20;;;6.65;;
48199;SDS011;33990;44.602;10.976;2023-02-01T10:33:07;9.98;;;7.15;;
48199;SDS011;33990;44.602;10.976;2023-02-01T10:35:45;13.10;;;7.13;;
48199;SDS011;33990;44.602;10.976;2023-02-01T10:38:27;10.10;;;7.00;;
48199;SDS011;33990;44.602;10.976;2023-02-01T10:41:01;9.90;;;6.93;;
48199;SDS011;33990;44.602;10.976;2023-02-01T10:43:34;13.02;;;7.68;;
48199;SDS011;33990;44.602;10.976;2023-02-01T10:46:02;9.63;;;6.97;;
48199;SDS011;33990;44.602;10.976;2023-02-01T10:48:31;9.18;;;6.60;;
48199;SDS011;33990;44.602;10.976;2023-02-01T10:51:00;9.38;;;7.05;;
48199;SDS011;33990;44.602;10.976;2023-02-01T10:53:41;10.10;;;7.35;;
48199;SDS011;33990;44.602;10.976;2023-02-01T10:56:29;10.43;;;6.95;;
48199;SDS011;33990;44.602;10.976;2023-02-01T10:59:02;12.27;;;7.05;;
48199;SDS011;33990;44.602;10.976;2023-02-01T11:01:36;9.00;;;5.85;;
48199;SDS011;33990;44.602;10.976;2023-02-01T11:04:24;10.18;;;6.95;;
48199;SDS011;33990;44.602;10.976;2023-02-01T11:06:54;10.70;;;6.28;;
48199;SDS011;33990;44.602;10.976;2023-02-01T11:09:38;12.73;;;6.82;;
48199;SDS011;33990;44.602;10.976;2023-02-01T11:15:22;8.93;;;6.70;;
48199;SDS011;33990;44.602;10.976;2023-02-01T11:17:50;8.95;;;6.82;;
48199;SDS011;33990;44.602;10.976;2023-02-01T11:20:40;7.72;;;5.93;;
48199;SDS011;33990;44.602;10.976;2023-02-01T11:23:19;12.98;;;6.72;;
48199;SDS011;33990;44.602;10.976;2023-02-01T11:25:49;7.95;;;5.90;;
48199;SDS011;33990;44.602;10.976;2023-02-01T11:28:22;8.65;;;5.80;;
48199;SDS011;33990;44.602;10.976;2023-02-01T11:30:53;9.75;;;6.15;;
48199;SDS011;33990;44.602;10.976;2023-02-01T11:33:30;8.55;;;5.90;;
48199;SDS011;33990;44.602;10.976;2023-02-01T11:36:09;8.95;;;5.88;;
48199;SDS011;33990;44.602;10.976;2023-02-01T11:38:46;8.70;;;6.03;;
48199;SDS011;33990;44.602;10.976;2023-02-01T11:41:24;9.05;;;5.70;;
48199;SDS011;33990;44.602;10.976;2023-02-01T11:43:54;7.95;;;6.18;;
48199;SDS011;33990;44.602;10.976;2023-02-01T11:46:30;12.50;;;7.50;;
48199;SDS011;33990;44.602;10.976;2023-02-01T11:49:21;9.48;;;6.13;;
48199;SDS011;33990;44.602;10.976;2023-02-01T11:52:01;10.38;;;6.53;;
48199;SDS011;33990;44.602;10.976;2023-02-01T11:54:36;7.47;;;5.78;;
48199;SDS011;33990;44.602;10.976;2023-02-01T12:20:22;9.27;;;5.45;;
48199;SDS011;33990;44.602;10.976;2023-02-01T12:25:56;7.88;;;5.13;;
48199;SDS011;33990;44.602;10.976;2023-02-01T12:39:41;7.47;;;5.00;;
48199;SDS011;33990;44.602;10.976;2023-02-01T12:45:39;9.68;;;5.13;;
48199;SDS011;33990;44.602;10.976;2023-02-01T12:51:01;9.10;;;4.90;;
48199;SDS011;33990;44.602;10.976;2023-02-01T12:53:36;9.57;;;4.93;;
48199;SDS011;33990;44.602;10.976;2023-02-01T12:56:22;7.43;;;5.03;;
48199;SDS011;33990;44.602;10.976;2023-02-01T12:58:58;7.82;;;4.40;;
48199;SDS011;33990;44.602;10.976;2023-02-01T13:04:13;9.52;;;5.18;;
48199;SDS011;33990;44.602;10.976;2023-02-01T13:06:54;6.13;;;3.88;;
48199;SDS011;33990;44.602;10.976;2023-02-01T13:12:17;10.18;;;4.85;;
48199;SDS011;33990;44.602;10.976;2023-02-01T13:15:11;6.93;;;4.45;;
48199;SDS011;33990;44.602;10.976;2023-02-01T13:17:44;7.33;;;4.73;;
48199;SDS011;33990;44.602;10.976;2023-02-01T13:20:19;6.82;;;4.65;;
48199;SDS011;33990;44.602;10.976;2023-02-01T13:22:54;7.53;;;4.47;;
48199;SDS011;33990;44.602;10.976;2023-02-01T13:25:31;8.48;;;4.68;;
48199;SDS011;33990;44.602;10.976;2023-02-01T13:28:06;6.70;;;4.40;;
48199;SDS011;33990;44.602;10.976;2023-02-01T13:39:21;7.60;;;5.30;;
48199;SDS011;33990;44.602;10.976;2023-02-01T13:41:58;7.47;;;4.63;;
48199;SDS011;33990;44.602;10.976;2023-02-01T13:44:34;7.68;;;4.38;;
48199;SDS011;33990;44.602;10.976;2023-02-01T13:47:53;7.68;;;4.20;;
48199;SDS011;33990;44.602;10.976;2023-02-01T13:50:12;6.38;;;3.83;;
48199;SDS011;33990;44.602;10.976;2023-02-01T13:53:11;7.40;;;4.40;;
48199;SDS011;33990;44.602;10.976;2023-02-01T13:55:44;7.40;;;4.47;;
48199;SDS011;33990;44.602;10.976;2023-02-01T13:58:48;7.32;;;4.47;;
48199;SDS011;33990;44.602;10.976;2023-02-01T14:03:49;8.68;;;4.68;;
48199;SDS011;33990;44.602;10.976;2023-02-01T14:16:44;5.70;;;3.97;;
48199;SDS011;33990;44.602;10.976;2023-02-01T14:19:32;5.68;;;3.53;;
48199;SDS011;33990;44.602;10.976;2023-02-01T14:22:30;11.30;;;4.22;;
48199;SDS011;33990;44.602;10.976;2023-02-01T14:24:51;5.35;;;3.85;;
48199;SDS011;33990;44.602;10.976;2023-02-01T14:27:23;5.65;;;4.05;;
48199;SDS011;33990;44.602;10.976;2023-02-01T14:29:59;7.65;;;4.38;;
48199;SDS011;33990;44.602;10.976;2023-02-01T14:32:33;5.28;;;4.13;;
48199;SDS011;33990;44.602;10.976;2023-02-01T14:35:06;6.68;;;4.80;;
48199;SDS011;33990;44.602;10.976;2023-02-01T14:37:45;6.72;;;4.47;;
48199;SDS011;33990;44.602;10.976;2023-02-01T14:50:39;7.15;;;3.60;;
48199;SDS011;33990;44.602;10.976;2023-02-01T15:06:24;7.10;;;4.20;;
48199;SDS011;33990;44.602;10.976;2023-02-01T15:09:03;5.55;;;3.70;;
48199;SDS011;33990;44.602;10.976;2023-02-01T15:11:31;4.60;;;3.58;;
48199;SDS011;33990;44.602;10.976;2023-02-01T15:13:58;5.13;;;3.65;;
48199;SDS011;33990;44.602;10.976;2023-02-01T15:16:27;4.93;;;3.63;;
48199;SDS011;33990;44.602;10.976;2023-02-01T15:19:08;5.85;;;4.10;;
48199;SDS011;33990;44.602;10.976;2023-02-01T15:21:45;6.40;;;3.97;;
48199;SDS011;33990;44.602;10.976;2023-02-01T15:24:19;8.02;;;4.45;;
48199;SDS011;33990;44.602;10.976;2023-02-01T15:26:49;6.35;;;4.22;;
48199;SDS011;33990;44.602;10.976;2023-02-01T15:29:18;6.10;;;3.90;;
48199;SDS011;33990;44.602;10.976;2023-02-01T15:31:49;6.75;;;4.30;;
48199;SDS011;33990;44.602;10.976;2023-02-01T15:34:18;6.55;;;4.40;;
48199;SDS011;33990;44.602;10.976;2023-02-01T15:36:47;6.93;;;4.53;;
48199;SDS011;33990;44.602;10.976;2023-02-01T15:39:29;5.80;;;3.65;;
48199;SDS011;33990;44.602;10.976;2023-02-01T15:42:00;6.82;;;3.92;;
48199;SDS011;33990;44.602;10.976;2023-02-01T15:47:08;5.55;;;4.05;;
48199;SDS011;33990;44.602;10.976;2023-02-01T15:49:43;7.50;;;3.63;;
48199;SDS011;33990;44.602;10.976;2023-02-01T15:52:20;6.70;;;3.40;;
48199;SDS011;33990;44.602;10.976;2023-02-01T15:55:05;4.43;;;3.38;;
48199;SDS011;33990;44.602;10.976;2023-02-01T15:57:44;7.03;;;4.45;;
48199;SDS011;33990;44.602;10.976;2023-02-01T16:05:42;6.38;;;4.10;;
48199;SDS011;33990;44.602;10.976;2023-02-01T16:08:12;6.90;;;3.67;;
48199;SDS011;33990;44.602;10.976;2023-02-01T16:10:43;6.97;;;4.22;;
48199;SDS011;33990;44.602;10.976;2023-02-01T16:13:13;5.00;;;3.40;;
48199;SDS011;33990;44.602;10.976;2023-02-01T16:15:41;6.82;;;4.40;;
48199;SDS011;33990;44.602;10.976;2023-02-01T16:18:09;6.43;;;3.88;;
48199;SDS011;33990;44.602;10.976;2023-02-01T16:20:38;5.90;;;4.40;;
48199;SDS011;33990;44.602;10.976;2023-02-01T16:23:07;5.45;;;3.80;;
48199;SDS011;33990;44.602;10.976;2023-02-01T16:25:36;4.88;;;3.63;;
48199;SDS011;33990;44.602;10.976;2023-02-01T16:28:04;5.63;;;4.13;;
48199;SDS011;33990;44.602;10.976;2023-02-01T16:30:32;9.50;;;3.63;;
48199;SDS011;33990;44.602;10.976;2023-02-01T16:33:00;6.35;;;4.20;;
48199;SDS011;33990;44.602;10.976;2023-02-01T16:35:35;5.85;;;4.07;;
48199;SDS011;33990;44.602;10.976;2023-02-01T16:38:04;6.78;;;3.90;;
48199;SDS011;33990;44.602;10.976;2023-02-01T16:40:39;5.95;;;3.70;;
48199;SDS011;33990;44.602;10.976;2023-02-01T16:43:15;5.43;;;4.20;;
48199;SDS011;33990;44.602;10.976;2023-02-01T16:45:43;5.45;;;3.72;;
48199;SDS011;33990;44.602;10.976;2023-02-01T16:50:57;5.88;;;4.28;;
48199;SDS011;33990;44.602;10.976;2023-02-01T16:53:27;8.90;;;5.15;;
48199;SDS011;33990;44.602;10.976;2023-02-01T16:55:58;5.40;;;4.25;;
48199;SDS011;33990;44.602;10.976;2023-02-01T16:58:26;7.57;;;5.20;;
48199;SDS011;33990;44.602;10.976;2023-02-01T17:00:56;7.95;;;5.22;;
48199;SDS011;33990;44.602;10.976;2023-02-01T17:03:23;8.93;;;5.50;;
48199;SDS011;33990;44.602;10.976;2023-02-01T17:05:54;7.55;;;5.15;;
48199;SDS011;33990;44.602;10.976;2023-02-01T17:08:30;9.15;;;5.95;;
48199;SDS011;33990;44.602;10.976;2023-02-01T17:11:01;8.00;;;5.40;;
48199;SDS011;33990;44.602;10.976;2023-02-01T17:13:30;9.70;;;5.68;;
48199;SDS011;33990;44.602;10.976;2023-02-01T17:15:58;7.10;;;5.68;;
48199;SDS011;33990;44.602;10.976;2023-02-01T17:18:29;8.35;;;5.47;;
48199;SDS011;33990;44.602;10.976;2023-02-01T17:21:00;6.93;;;5.32;;
48199;SDS011;33990;44.602;10.976;2023-02-01T17:23:29;10.25;;;5.40;;
48199;SDS011;33990;44.602;10.976;2023-02-01T17:25:58;10.23;;;6.40;;
48199;SDS011;33990;44.602;10.976;2023-02-01T17:28:25;6.80;;;5.15;;
48199;SDS011;33990;44.602;10.976;2023-02-01T17:30:53;9.70;;;6.03;;
48199;SDS011;33990;44.602;10.976;2023-02-01T17:33:23;7.40;;;6.00;;
48199;SDS011;33990;44.602;10.976;2023-02-01T17:36:12;9.52;;;5.70;;
48199;SDS011;33990;44.602;10.976;2023-02-01T17:38:42;7.38;;;6.13;;
48199;SDS011;33990;44.602;10.976;2023-02-01T17:41:19;8.30;;;6.53;;
48199;SDS011;33990;44.602;10.976;2023-02-01T17:43:47;9.07;;;6.70;;